sensor_id;sensor_type;location;lat;lon;timestamp;pressure;altitude;pressure_sealevel;temperature
20289;BMP180;10303;51.960;8.372;2024-03-29T00:01:25;98382.00;;;11.10
20289;BMP180;10303;51.960;8.372;2024-03-29T00:03:51;98387.00;;;11.20
20289;BMP180;10303;51.960;8.372;2024-03-29T00:06:19;98381.00;;;11.10
20289;BMP180;10303;51.960;8.372;2024-03-29T00:08:44;98378.00;;;11.10
20289;BMP180;10303;51.960;8.372;2024-03-29T00:11:10;98372.00;;;11.10
20289;BMP180;10303;51.960;8.372;2024-03-29T00:13:36;98372.00;;;11.10
20289;BMP180;10303;51.960;8.372;2024-03-29T00:16:03;98372.00;;;11.10
20289;BMP180;10303;51.960;8.372;2024-03-29T00:18:29;98362.00;;;11.00
20289;BMP180;10303;51.960;8.372;2024-03-29T00:20:54;98377.00;;;11.00
20289;BMP180;10303;51.960;8.372;2024-03-29T00:23:20;98363.00;;;11.00
20289;BMP180;10303;51.960;8.372;2024-03-29T00:25:47;98369.00;;;11.00
20289;BMP180;10303;51.960;8.372;2024-03-29T00:28:13;98363.00;;;11.00
20289;BMP180;10303;51.960;8.372;2024-03-29T00:30:39;98376.00;;;11.00
20289;BMP180;10303;51.960;8.372;2024-03-29T00:33:05;98369.00;;;11.00
20289;BMP180;10303;51.960;8.372;2024-03-29T00:35:31;98360.00;;;10.90
20289;BMP180;10303;51.960;8.372;2024-03-29T00:37:57;98364.00;;;10.90
20289;BMP180;10303;51.960;8.372;2024-03-29T00:40:23;98364.00;;;10.90
20289;BMP180;10303;51.960;8.372;2024-03-29T00:42:49;98361.00;;;10.90
20289;BMP180;10303;51.960;8.372;2024-03-29T00:45:15;98366.00;;;10.90
20289;BMP180;10303;51.960;8.372;2024-03-29T00:47:40;98360.00;;;10.90
20289;BMP180;10303;51.960;8.372;2024-03-29T00:50:07;98359.00;;;10.90
20289;BMP180;10303;51.960;8.372;2024-03-29T00:52:36;98351.00;;;10.80
20289;BMP180;10303;51.960;8.372;2024-03-29T00:55:02;98355.00;;;10.80
20289;BMP180;10303;51.960;8.372;2024-03-29T00:57:29;98351.00;;;10.80
20289;BMP180;10303;51.960;8.372;2024-03-29T00:59:55;98348.00;;;10.80
20289;BMP180;10303;51.960;8.372;2024-03-29T01:02:23;98352.00;;;10.80
20289;BMP180;10303;51.960;8.372;2024-03-29T01:04:52;98352.00;;;10.80
20289;BMP180;10303;51.960;8.372;2024-03-29T01:07:18;98354.00;;;10.80
20289;BMP180;10303;51.960;8.372;2024-03-29T01:09:44;98355.00;;;10.80
20289;BMP180;10303;51.960;8.372;2024-03-29T01:12:10;98352.00;;;10.80
20289;BMP180;10303;51.960;8.372;2024-03-29T01:14:36;98354.00;;;10.80
20289;BMP180;10303;51.960;8.372;2024-03-29T01:17:02;98367.00;;;10.80
20289;BMP180;10303;51.960;8.372;2024-03-29T01:19:28;98371.00;;;10.80
20289;BMP180;10303;51.960;8.372;2024-03-29T01:21:54;98376.00;;;10.80
20289;BMP180;10303;51.960;8.372;2024-03-29T01:24:20;98384.00;;;10.80
20289;BMP180;10303;51.960;8.372;2024-03-29T01:26:46;98377.00;;;10.80
20289;BMP180;10303;51.960;8.372;2024-03-29T01:29:12;98376.00;;;10.80
20289;BMP180;10303;51.960;8.372;2024-03-29T01:31:38;98375.00;;;10.80
20289;BMP180;10303;51.960;8.372;2024-03-29T01:34:04;98379.00;;;10.80
20289;BMP180;10303;51.960;8.372;2024-03-29T01:36:30;98378.00;;;10.80
20289;BMP180;10303;51.960;8.372;2024-03-29T01:38:56;98378.00;;;10.80
20289;BMP180;10303;51.960;8.372;2024-03-29T01:41:23;98372.00;;;10.80
20289;BMP180;10303;51.960;8.372;2024-03-29T01:43:50;98379.00;;;10.80
20289;BMP180;10303;51.960;8.372;2024-03-29T01:46:23;98384.00;;;10.80
20289;BMP180;10303;51.960;8.372;2024-03-29T01:48:54;98377.00;;;10.80
20289;BMP180;10303;51.960;8.372;2024-03-29T01:51:23;98379.00;;;10.80
20289;BMP180;10303;51.960;8.372;2024-03-29T01:53:52;98386.00;;;10.80
20289;BMP180;10303;51.960;8.372;2024-03-29T01:56:22;98376.00;;;10.80
20289;BMP180;10303;51.960;8.372;2024-03-29T01:58:53;98373.00;;;10.80
20289;BMP180;10303;51.960;8.372;2024-03-29T02:01:21;98372.00;;;10.80
20289;BMP180;10303;51.960;8.372;2024-03-29T02:03:47;98368.00;;;10.80
20289;BMP180;10303;51.960;8.372;2024-03-29T02:06:14;98362.00;;;10.80
20289;BMP180;10303;51.960;8.372;2024-03-29T02:08:40;98364.00;;;10.80
20289;BMP180;10303;51.960;8.372;2024-03-29T02:11:06;98358.00;;;10.80
20289;BMP180;10303;51.960;8.372;2024-03-29T02:13:32;98364.00;;;10.80
20289;BMP180;10303;51.960;8.372;2024-03-29T02:15:58;98357.00;;;10.80
20289;BMP180;10303;51.960;8.372;2024-03-29T02:18:24;98350.00;;;10.80
20289;BMP180;10303;51.960;8.372;2024-03-29T02:20:50;98346.00;;;10.90
20289;BMP180;10303;51.960;8.372;2024-03-29T02:23:20;98351.00;;;10.90
20289;BMP180;10303;51.960;8.372;2024-03-29T02:25:49;98348.00;;;10.90
20289;BMP180;10303;51.960;8.372;2024-03-29T02:28:16;98347.00;;;10.90
20289;BMP180;10303;51.960;8.372;2024-03-29T02:30:42;98329.00;;;10.90
20289;BMP180;10303;51.960;8.372;2024-03-29T02:33:08;98328.00;;;10.90
20289;BMP180;10303;51.960;8.372;2024-03-29T02:35:34;98323.00;;;10.90
20289;BMP180;10303;51.960;8.372;2024-03-29T02:38:00;98313.00;;;11.00
20289;BMP180;10303;51.960;8.372;2024-03-29T02:40:26;98313.00;;;11.00
20289;BMP180;10303;51.960;8.372;2024-03-29T02:42:52;98324.00;;;11.00
20289;BMP180;10303;51.960;8.372;2024-03-29T02:45:18;98312.00;;;11.00
20289;BMP180;10303;51.960;8.372;2024-03-29T02:47:44;98304.00;;;11.00
20289;BMP180;10303;51.960;8.372;2024-03-29T02:50:14;98313.00;;;11.00
20289;BMP180;10303;51.960;8.372;2024-03-29T02:52:40;98309.00;;;11.00
20289;BMP180;10303;51.960;8.372;2024-03-29T02:55:06;98314.00;;;11.00
20289;BMP180;10303;51.960;8.372;2024-03-29T02:57:32;98313.00;;;11.00
20289;BMP180;10303;51.960;8.372;2024-03-29T02:59:58;98317.00;;;11.10
20289;BMP180;10303;51.960;8.372;2024-03-29T03:02:24;98338.00;;;11.10
20289;BMP180;10303;51.960;8.372;2024-03-29T03:04:50;98318.00;;;11.10
20289;BMP180;10303;51.960;8.372;2024-03-29T03:07:16;98313.00;;;11.10
20289;BMP180;10303;51.960;8.372;2024-03-29T03:10:00;98325.00;;;11.10
20289;BMP180;10303;51.960;8.372;2024-03-29T03:12:45;98322.00;;;11.10
20289;BMP180;10303;51.960;8.372;2024-03-29T03:15:11;98314.00;;;11.20
20289;BMP180;10303;51.960;8.372;2024-03-29T03:17:37;98320.00;;;11.20
20289;BMP180;10303;51.960;8.372;2024-03-29T03:20:03;98318.00;;;11.20
20289;BMP180;10303;51.960;8.372;2024-03-29T03:22:34;98313.00;;;11.20
20289;BMP180;10303;51.960;8.372;2024-03-29T03:25:00;98317.00;;;11.20
20289;BMP180;10303;51.960;8.372;2024-03-29T03:27:26;98315.00;;;11.20
20289;BMP180;10303;51.960;8.372;2024-03-29T03:29:53;98309.00;;;11.20
20289;BMP180;10303;51.960;8.372;2024-03-29T03:32:19;98322.00;;;11.20
20289;BMP180;10303;51.960;8.372;2024-03-29T03:34:45;98317.00;;;11.30
20289;BMP180;10303;51.960;8.372;2024-03-29T03:37:10;98325.00;;;11.30
20289;BMP180;10303;51.960;8.372;2024-03-29T03:39:37;98328.00;;;11.30
20289;BMP180;10303;51.960;8.372;2024-03-29T03:42:04;98324.00;;;11.30
20289;BMP180;10303;51.960;8.372;2024-03-29T03:44:30;98338.00;;;11.30
20289;BMP180;10303;51.960;8.372;2024-03-29T03:46:56;98324.00;;;11.30
20289;BMP180;10303;51.960;8.372;2024-03-29T03:49:22;98326.00;;;11.40
20289;BMP180;10303;51.960;8.372;2024-03-29T03:51:48;98339.00;;;11.40
20289;BMP180;10303;51.960;8.372;2024-03-29T03:54:13;98334.00;;;11.40
20289;BMP180;10303;51.960;8.372;2024-03-29T03:56:39;98327.00;;;11.40
20289;BMP180;10303;51.960;8.372;2024-03-29T03:59:05;98326.00;;;11.40
20289;BMP180;10303;51.960;8.372;2024-03-29T04:01:31;98341.00;;;11.40
20289;BMP180;10303;51.960;8.372;2024-03-29T04:03:57;98338.00;;;11.40
20289;BMP180;10303;51.960;8.372;2024-03-29T04:06:23;98347.00;;;11.50
20289;BMP180;10303;51.960;8.372;2024-03-29T04:08:49;98354.00;;;11.50
20289;BMP180;10303;51.960;8.372;2024-03-29T04:11:15;98352.00;;;11.50
20289;BMP180;10303;51.960;8.372;2024-03-29T04:13:44;98363.00;;;11.50
20289;BMP180;10303;51.960;8.372;2024-03-29T04:16:11;98369.00;;;11.50
20289;BMP180;10303;51.960;8.372;2024-03-29T04:18:37;98374.00;;;11.60
20289;BMP180;10303;51.960;8.372;2024-03-29T04:21:03;98369.00;;;11.60
20289;BMP180;10303;51.960;8.372;2024-03-29T04:23:30;98365.00;;;11.60
20289;BMP180;10303;51.960;8.372;2024-03-29T04:25:58;98374.00;;;11.60
20289;BMP180;10303;51.960;8.372;2024-03-29T04:28:26;98376.00;;;11.60
20289;BMP180;10303;51.960;8.372;2024-03-29T04:30:57;98380.00;;;11.70
20289;BMP180;10303;51.960;8.372;2024-03-29T04:33:24;98373.00;;;11.70
20289;BMP180;10303;51.960;8.372;2024-03-29T04:36:02;98365.00;;;11.60
20289;BMP180;10303;51.960;8.372;2024-03-29T04:38:30;98367.00;;;11.70
20289;BMP180;10303;51.960;8.372;2024-03-29T04:40:58;98365.00;;;11.70
20289;BMP180;10303;51.960;8.372;2024-03-29T04:43:26;98369.00;;;11.70
20289;BMP180;10303;51.960;8.372;2024-03-29T04:46:22;98401.00;;;11.70
20289;BMP180;10303;51.960;8.372;2024-03-29T04:48:50;98399.00;;;11.70
20289;BMP180;10303;51.960;8.372;2024-03-29T04:51:16;98398.00;;;11.70
20289;BMP180;10303;51.960;8.372;2024-03-29T04:53:42;98400.00;;;11.70
20289;BMP180;10303;51.960;8.372;2024-03-29T04:56:07;98404.00;;;11.70
20289;BMP180;10303;51.960;8.372;2024-03-29T04:58:33;98406.00;;;11.60
20289;BMP180;10303;51.960;8.372;2024-03-29T05:01:00;98391.00;;;11.60
20289;BMP180;10303;51.960;8.372;2024-03-29T05:03:25;98385.00;;;11.60
20289;BMP180;10303;51.960;8.372;2024-03-29T05:05:52;98391.00;;;11.60
20289;BMP180;10303;51.960;8.372;2024-03-29T05:08:19;98402.00;;;11.60
20289;BMP180;10303;51.960;8.372;2024-03-29T05:10:47;98404.00;;;11.70
20289;BMP180;10303;51.960;8.372;2024-03-29T05:13:13;98397.00;;;11.70
20289;BMP180;10303;51.960;8.372;2024-03-29T05:15:39;98380.00;;;11.70
20289;BMP180;10303;51.960;8.372;2024-03-29T05:18:05;98397.00;;;11.70
20289;BMP180;10303;51.960;8.372;2024-03-29T05:20:31;98397.00;;;11.70
20289;BMP180;10303;51.960;8.372;2024-03-29T05:22:58;98392.00;;;11.70
20289;BMP180;10303;51.960;8.372;2024-03-29T05:25:25;98392.00;;;11.70
20289;BMP180;10303;51.960;8.372;2024-03-29T05:27:51;98396.00;;;11.70
20289;BMP180;10303;51.960;8.372;2024-03-29T05:30:17;98404.00;;;11.70
20289;BMP180;10303;51.960;8.372;2024-03-29T05:32:45;98406.00;;;11.70
20289;BMP180;10303;51.960;8.372;2024-03-29T05:35:11;98396.00;;;11.70
20289;BMP180;10303;51.960;8.372;2024-03-29T05:37:37;98388.00;;;11.70
20289;BMP180;10303;51.960;8.372;2024-03-29T05:40:04;98386.00;;;11.70
20289;BMP180;10303;51.960;8.372;2024-03-29T05:42:32;98377.00;;;11.70
20289;BMP180;10303;51.960;8.372;2024-03-29T05:45:05;98387.00;;;11.60
20289;BMP180;10303;51.960;8.372;2024-03-29T05:47:31;98374.00;;;11.60
20289;BMP180;10303;51.960;8.372;2024-03-29T05:49:57;98379.00;;;11.70
20289;BMP180;10303;51.960;8.372;2024-03-29T05:52:23;98373.00;;;11.70
20289;BMP180;10303;51.960;8.372;2024-03-29T05:54:49;98372.00;;;11.60
20289;BMP180;10303;51.960;8.372;2024-03-29T05:57:15;98369.00;;;11.60
20289;BMP180;10303;51.960;8.372;2024-03-29T05:59:41;98375.00;;;11.60
20289;BMP180;10303;51.960;8.372;2024-03-29T06:02:07;98375.00;;;11.70
20289;BMP180;10303;51.960;8.372;2024-03-29T06:04:33;98371.00;;;11.60
20289;BMP180;10303;51.960;8.372;2024-03-29T06:07:00;98362.00;;;11.60
20289;BMP180;10303;51.960;8.372;2024-03-29T06:09:26;98370.00;;;11.70
20289;BMP180;10303;51.960;8.372;2024-03-29T06:11:55;98371.00;;;11.60
20289;BMP180;10303;51.960;8.372;2024-03-29T06:14:24;98368.00;;;11.60
20289;BMP180;10303;51.960;8.372;2024-03-29T06:17:09;98359.00;;;11.60
20289;BMP180;10303;51.960;8.372;2024-03-29T06:19:55;98353.00;;;11.60
20289;BMP180;10303;51.960;8.372;2024-03-29T06:22:26;98348.00;;;11.60
20289;BMP180;10303;51.960;8.372;2024-03-29T06:24:56;98332.00;;;11.60
20289;BMP180;10303;51.960;8.372;2024-03-29T06:27:32;98328.00;;;11.50
20289;BMP180;10303;51.960;8.372;2024-03-29T06:29:58;98318.00;;;11.50
20289;BMP180;10303;51.960;8.372;2024-03-29T06:32:24;98335.00;;;11.50
20289;BMP180;10303;51.960;8.372;2024-03-29T06:34:50;98311.00;;;11.50
20289;BMP180;10303;51.960;8.372;2024-03-29T06:37:16;98323.00;;;11.50
20289;BMP180;10303;51.960;8.372;2024-03-29T06:39:42;98326.00;;;11.50
20289;BMP180;10303;51.960;8.372;2024-03-29T06:42:09;98313.00;;;11.50
20289;BMP180;10303;51.960;8.372;2024-03-29T06:44:36;98303.00;;;11.50
20289;BMP180;10303;51.960;8.372;2024-03-29T06:47:05;98306.00;;;11.50
20289;BMP180;10303;51.960;8.372;2024-03-29T06:49:31;98307.00;;;11.50
20289;BMP180;10303;51.960;8.372;2024-03-29T06:51:58;98301.00;;;11.50
20289;BMP180;10303;51.960;8.372;2024-03-29T06:54:30;98306.00;;;11.40
20289;BMP180;10303;51.960;8.372;2024-03-29T06:56:58;98306.00;;;11.50
20289;BMP180;10303;51.960;8.372;2024-03-29T06:59:24;98303.00;;;11.40
20289;BMP180;10303;51.960;8.372;2024-03-29T07:01:50;98292.00;;;11.40
20289;BMP180;10303;51.960;8.372;2024-03-29T07:04:24;98290.00;;;11.40
20289;BMP180;10303;51.960;8.372;2024-03-29T07:06:54;98299.00;;;11.40
20289;BMP180;10303;51.960;8.372;2024-03-29T07:09:21;98291.00;;;11.50
20289;BMP180;10303;51.960;8.372;2024-03-29T07:11:50;98303.00;;;11.50
20289;BMP180;10303;51.960;8.372;2024-03-29T07:14:18;98291.00;;;11.50
20289;BMP180;10303;51.960;8.372;2024-03-29T07:16:45;98282.00;;;11.50
20289;BMP180;10303;51.960;8.372;2024-03-29T07:19:12;98287.00;;;11.50
20289;BMP180;10303;51.960;8.372;2024-03-29T07:21:39;98290.00;;;11.50
20289;BMP180;10303;51.960;8.372;2024-03-29T07:24:06;98285.00;;;11.60
20289;BMP180;10303;51.960;8.372;2024-03-29T07:26:32;98290.00;;;11.60
20289;BMP180;10303;51.960;8.372;2024-03-29T07:28:58;98294.00;;;11.60
20289;BMP180;10303;51.960;8.372;2024-03-29T07:31:24;98273.00;;;11.60
20289;BMP180;10303;51.960;8.372;2024-03-29T07:33:50;98281.00;;;11.70
20289;BMP180;10303;51.960;8.372;2024-03-29T07:36:16;98273.00;;;11.70
20289;BMP180;10303;51.960;8.372;2024-03-29T07:38:43;98273.00;;;11.70
20289;BMP180;10303;51.960;8.372;2024-03-29T07:41:10;98268.00;;;11.80
20289;BMP180;10303;51.960;8.372;2024-03-29T07:43:41;98270.00;;;11.80
20289;BMP180;10303;51.960;8.372;2024-03-29T07:46:08;98275.00;;;11.80
20289;BMP180;10303;51.960;8.372;2024-03-29T07:48:35;98283.00;;;11.90
20289;BMP180;10303;51.960;8.372;2024-03-29T07:51:01;98281.00;;;11.90
20289;BMP180;10303;51.960;8.372;2024-03-29T07:53:27;98287.00;;;12.00
20289;BMP180;10303;51.960;8.372;2024-03-29T07:55:53;98284.00;;;12.00
20289;BMP180;10303;51.960;8.372;2024-03-29T07:58:20;98279.00;;;12.00
20289;BMP180;10303;51.960;8.372;2024-03-29T08:00:46;98282.00;;;12.00
20289;BMP180;10303;51.960;8.372;2024-03-29T08:03:12;98285.00;;;12.10
20289;BMP180;10303;51.960;8.372;2024-03-29T08:05:38;98273.00;;;12.10
20289;BMP180;10303;51.960;8.372;2024-03-29T08:08:04;98271.00;;;12.20
20289;BMP180;10303;51.960;8.372;2024-03-29T08:10:31;98292.00;;;12.20
20289;BMP180;10303;51.960;8.372;2024-03-29T08:12:57;98298.00;;;12.20
20289;BMP180;10303;51.960;8.372;2024-03-29T08:15:23;98305.00;;;12.30
20289;BMP180;10303;51.960;8.372;2024-03-29T08:17:50;98320.00;;;12.30
20289;BMP180;10303;51.960;8.372;2024-03-29T08:20:16;98322.00;;;12.30
20289;BMP180;10303;51.960;8.372;2024-03-29T08:22:42;98337.00;;;12.30
20289;BMP180;10303;51.960;8.372;2024-03-29T08:25:08;98342.00;;;12.40
20289;BMP180;10303;51.960;8.372;2024-03-29T08:27:34;98323.00;;;12.40
20289;BMP180;10303;51.960;8.372;2024-03-29T08:30:00;98330.00;;;12.40
20289;BMP180;10303;51.960;8.372;2024-03-29T08:32:26;98330.00;;;12.50
20289;BMP180;10303;51.960;8.372;2024-03-29T08:34:52;98333.00;;;12.50
20289;BMP180;10303;51.960;8.372;2024-03-29T08:37:18;98329.00;;;12.50
20289;BMP180;10303;51.960;8.372;2024-03-29T08:39:44;98321.00;;;12.60
20289;BMP180;10303;51.960;8.372;2024-03-29T08:42:10;98333.00;;;12.60
20289;BMP180;10303;51.960;8.372;2024-03-29T08:44:37;98332.00;;;12.60
20289;BMP180;10303;51.960;8.372;2024-03-29T08:47:05;98335.00;;;12.70
20289;BMP180;10303;51.960;8.372;2024-03-29T08:49:31;98317.00;;;12.70
20289;BMP180;10303;51.960;8.372;2024-03-29T08:51:57;98333.00;;;12.80
20289;BMP180;10303;51.960;8.372;2024-03-29T08:54:25;98333.00;;;12.80
20289;BMP180;10303;51.960;8.372;2024-03-29T08:56:50;98335.00;;;12.90
20289;BMP180;10303;51.960;8.372;2024-03-29T08:59:16;98329.00;;;12.90
20289;BMP180;10303;51.960;8.372;2024-03-29T09:01:47;98329.00;;;12.90
20289;BMP180;10303;51.960;8.372;2024-03-29T09:04:17;98323.00;;;13.00
20289;BMP180;10303;51.960;8.372;2024-03-29T09:06:43;98327.00;;;13.00
20289;BMP180;10303;51.960;8.372;2024-03-29T09:09:09;98327.00;;;13.10
20289;BMP180;10303;51.960;8.372;2024-03-29T09:11:35;98326.00;;;13.20
20289;BMP180;10303;51.960;8.372;2024-03-29T09:14:02;98331.00;;;13.30
20289;BMP180;10303;51.960;8.372;2024-03-29T09:16:30;98332.00;;;13.30
20289;BMP180;10303;51.960;8.372;2024-03-29T09:18:56;98336.00;;;13.40
20289;BMP180;10303;51.960;8.372;2024-03-29T09:21:23;98336.00;;;13.50
20289;BMP180;10303;51.960;8.372;2024-03-29T09:23:49;98322.00;;;13.50
20289;BMP180;10303;51.960;8.372;2024-03-29T09:26:18;98331.00;;;13.60
20289;BMP180;10303;51.960;8.372;2024-03-29T09:28:44;98335.00;;;13.70
20289;BMP180;10303;51.960;8.372;2024-03-29T09:31:10;98340.00;;;13.70
20289;BMP180;10303;51.960;8.372;2024-03-29T09:33:36;98344.00;;;13.80
20289;BMP180;10303;51.960;8.372;2024-03-29T09:36:02;98345.00;;;13.80
20289;BMP180;10303;51.960;8.372;2024-03-29T09:38:29;98348.00;;;13.90
20289;BMP180;10303;51.960;8.372;2024-03-29T09:41:10;98351.00;;;13.90
20289;BMP180;10303;51.960;8.372;2024-03-29T09:43:39;98356.00;;;14.00
20289;BMP180;10303;51.960;8.372;2024-03-29T09:46:08;98352.00;;;14.00
20289;BMP180;10303;51.960;8.372;2024-03-29T09:48:37;98350.00;;;14.10
20289;BMP180;10303;51.960;8.372;2024-03-29T09:51:07;98337.00;;;14.10
20289;BMP180;10303;51.960;8.372;2024-03-29T09:53:38;98348.00;;;14.20
20289;BMP180;10303;51.960;8.372;2024-03-29T09:56:05;98341.00;;;14.20
20289;BMP180;10303;51.960;8.372;2024-03-29T09:58:33;98355.00;;;14.30
20289;BMP180;10303;51.960;8.372;2024-03-29T10:01:02;98346.00;;;14.40
20289;BMP180;10303;51.960;8.372;2024-03-29T10:03:30;98361.00;;;14.40
20289;BMP180;10303;51.960;8.372;2024-03-29T10:05:57;98349.00;;;14.50
20289;BMP180;10303;51.960;8.372;2024-03-29T10:08:30;98355.00;;;14.50
20289;BMP180;10303;51.960;8.372;2024-03-29T10:10:57;98341.00;;;14.60
20289;BMP180;10303;51.960;8.372;2024-03-29T10:13:24;98342.00;;;14.60
20289;BMP180;10303;51.960;8.372;2024-03-29T10:15:54;98342.00;;;14.70
20289;BMP180;10303;51.960;8.372;2024-03-29T10:18:27;98348.00;;;14.70
20289;BMP180;10303;51.960;8.372;2024-03-29T10:21:04;98351.00;;;14.80
20289;BMP180;10303;51.960;8.372;2024-03-29T10:23:31;98351.00;;;14.80
20289;BMP180;10303;51.960;8.372;2024-03-29T10:25:58;98355.00;;;14.90
20289;BMP180;10303;51.960;8.372;2024-03-29T10:28:30;98364.00;;;15.00
20289;BMP180;10303;51.960;8.372;2024-03-29T10:30:57;98378.00;;;15.00
20289;BMP180;10303;51.960;8.372;2024-03-29T10:33:27;98366.00;;;15.10
20289;BMP180;10303;51.960;8.372;2024-03-29T10:35:53;98370.00;;;15.10
20289;BMP180;10303;51.960;8.372;2024-03-29T10:38:21;98348.00;;;15.20
20289;BMP180;10303;51.960;8.372;2024-03-29T10:40:49;98356.00;;;15.20
20289;BMP180;10303;51.960;8.372;2024-03-29T10:43:16;98357.00;;;15.30
20289;BMP180;10303;51.960;8.372;2024-03-29T10:45:43;98367.00;;;15.30
20289;BMP180;10303;51.960;8.372;2024-03-29T10:48:10;98367.00;;;15.40
20289;BMP180;10303;51.960;8.372;2024-03-29T10:50:37;98366.00;;;15.40
20289;BMP180;10303;51.960;8.372;2024-03-29T10:53:05;98380.00;;;15.40
20289;BMP180;10303;51.960;8.372;2024-03-29T10:55:34;98386.00;;;15.40
20289;BMP180;10303;51.960;8.372;2024-03-29T10:58:05;98377.00;;;15.40
20289;BMP180;10303;51.960;8.372;2024-03-29T11:00:39;98376.00;;;15.50
20289;BMP180;10303;51.960;8.372;2024-03-29T11:03:20;98393.00;;;15.50
20289;BMP180;10303;51.960;8.372;2024-03-29T11:05:50;98394.00;;;15.50
20289;BMP180;10303;51.960;8.372;2024-03-29T11:08:26;98405.00;;;15.50
20289;BMP180;10303;51.960;8.372;2024-03-29T11:10:59;98384.00;;;15.60
20289;BMP180;10303;51.960;8.372;2024-03-29T11:14:07;98401.00;;;15.60
20289;BMP180;10303;51.960;8.372;2024-03-29T11:16:36;98389.00;;;15.70
20289;BMP180;10303;51.960;8.372;2024-03-29T11:19:03;98386.00;;;15.70
20289;BMP180;10303;51.960;8.372;2024-03-29T11:21:31;98377.00;;;15.80
20289;BMP180;10303;51.960;8.372;2024-03-29T11:23:58;98376.00;;;15.90
20289;BMP180;10303;51.960;8.372;2024-03-29T11:26:27;98371.00;;;16.00
20289;BMP180;10303;51.960;8.372;2024-03-29T11:28:53;98362.00;;;16.00
20289;BMP180;10303;51.960;8.372;2024-03-29T11:31:25;98361.00;;;16.10
20289;BMP180;10303;51.960;8.372;2024-03-29T11:33:51;98362.00;;;16.20
20289;BMP180;10303;51.960;8.372;2024-03-29T11:36:22;98372.00;;;16.20
20289;BMP180;10303;51.960;8.372;2024-03-29T11:38:56;98384.00;;;16.20
20289;BMP180;10303;51.960;8.372;2024-03-29T11:41:25;98376.00;;;16.30
20289;BMP180;10303;51.960;8.372;2024-03-29T11:43:51;98383.00;;;16.30
20289;BMP180;10303;51.960;8.372;2024-03-29T11:46:18;98381.00;;;16.40
20289;BMP180;10303;51.960;8.372;2024-03-29T11:48:45;98372.00;;;16.50
20289;BMP180;10303;51.960;8.372;2024-03-29T11:51:16;98370.00;;;16.60
20289;BMP180;10303;51.960;8.372;2024-03-29T11:53:44;98384.00;;;16.70
20289;BMP180;10303;51.960;8.372;2024-03-29T11:56:10;98380.00;;;16.70
20289;BMP180;10303;51.960;8.372;2024-03-29T11:58:40;98380.00;;;16.80
20289;BMP180;10303;51.960;8.372;2024-03-29T12:01:07;98395.00;;;16.80
20289;BMP180;10303;51.960;8.372;2024-03-29T12:03:40;98394.00;;;16.80
20289;BMP180;10303;51.960;8.372;2024-03-29T12:06:07;98418.00;;;16.90
20289;BMP180;10303;51.960;8.372;2024-03-29T12:08:39;98408.00;;;16.80
20289;BMP180;10303;51.960;8.372;2024-03-29T12:11:05;98414.00;;;16.90
20289;BMP180;10303;51.960;8.372;2024-03-29T12:13:32;98404.00;;;16.90
20289;BMP180;10303;51.960;8.372;2024-03-29T12:15:59;98408.00;;;16.90
20289;BMP180;10303;51.960;8.372;2024-03-29T12:18:27;98386.00;;;17.00
20289;BMP180;10303;51.960;8.372;2024-03-29T12:20:55;98388.00;;;17.00
20289;BMP180;10303;51.960;8.372;2024-03-29T12:23:21;98384.00;;;17.10
20289;BMP180;10303;51.960;8.372;2024-03-29T12:25:50;98378.00;;;17.20
20289;BMP180;10303;51.960;8.372;2024-03-29T12:28:17;98396.00;;;17.30
20289;BMP180;10303;51.960;8.372;2024-03-29T12:30:46;98408.00;;;17.40
20289;BMP180;10303;51.960;8.372;2024-03-29T12:33:18;98418.00;;;17.50
20289;BMP180;10303;51.960;8.372;2024-03-29T12:35:52;98457.00;;;17.50
20289;BMP180;10303;51.960;8.372;2024-03-29T12:38:21;98441.00;;;17.50
20289;BMP180;10303;51.960;8.372;2024-03-29T12:40:49;98463.00;;;17.50
20289;BMP180;10303;51.960;8.372;2024-03-29T12:43:21;98457.00;;;17.50
20289;BMP180;10303;51.960;8.372;2024-03-29T12:45:50;98438.00;;;17.50
20289;BMP180;10303;51.960;8.372;2024-03-29T12:48:19;98442.00;;;17.50
20289;BMP180;10303;51.960;8.372;2024-03-29T12:50:47;98450.00;;;17.50
20289;BMP180;10303;51.960;8.372;2024-03-29T12:53:15;98467.00;;;17.60
20289;BMP180;10303;51.960;8.372;2024-03-29T12:55:44;98477.00;;;17.70
20289;BMP180;10303;51.960;8.372;2024-03-29T12:58:13;98470.00;;;17.80
20289;BMP180;10303;51.960;8.372;2024-03-29T13:00:40;98448.00;;;17.80
20289;BMP180;10303;51.960;8.372;2024-03-29T13:03:07;98446.00;;;17.90
20289;BMP180;10303;51.960;8.372;2024-03-29T13:05:35;98458.00;;;18.10
20289;BMP180;10303;51.960;8.372;2024-03-29T13:08:13;98450.00;;;18.30
20289;BMP180;10303;51.960;8.372;2024-03-29T13:10:44;98458.00;;;18.40
20289;BMP180;10303;51.960;8.372;2024-03-29T13:13:11;98455.00;;;18.50
20289;BMP180;10303;51.960;8.372;2024-03-29T13:15:38;98444.00;;;18.60
20289;BMP180;10303;51.960;8.372;2024-03-29T13:18:06;98444.00;;;18.60
20289;BMP180;10303;51.960;8.372;2024-03-29T13:20:36;98459.00;;;18.60
20289;BMP180;10303;51.960;8.372;2024-03-29T13:23:09;98438.00;;;18.60
20289;BMP180;10303;51.960;8.372;2024-03-29T13:25:36;98455.00;;;18.70
20289;BMP180;10303;51.960;8.372;2024-03-29T13:28:02;98446.00;;;18.70
20289;BMP180;10303;51.960;8.372;2024-03-29T13:30:28;98441.00;;;18.70
20289;BMP180;10303;51.960;8.372;2024-03-29T13:32:55;98443.00;;;18.80
20289;BMP180;10303;51.960;8.372;2024-03-29T13:35:21;98448.00;;;18.80
20289;BMP180;10303;51.960;8.372;2024-03-29T13:37:51;98463.00;;;18.80
20289;BMP180;10303;51.960;8.372;2024-03-29T13:40:23;98451.00;;;18.80
20289;BMP180;10303;51.960;8.372;2024-03-29T13:42:50;98450.00;;;18.90
20289;BMP180;10303;51.960;8.372;2024-03-29T13:45:16;98458.00;;;18.90
20289;BMP180;10303;51.960;8.372;2024-03-29T13:47:45;98450.00;;;18.90
20289;BMP180;10303;51.960;8.372;2024-03-29T13:50:13;98459.00;;;19.00
20289;BMP180;10303;51.960;8.372;2024-03-29T13:52:42;98464.00;;;19.00
20289;BMP180;10303;51.960;8.372;2024-03-29T13:55:09;98470.00;;;19.00
20289;BMP180;10303;51.960;8.372;2024-03-29T13:57:36;98473.00;;;19.00
20289;BMP180;10303;51.960;8.372;2024-03-29T14:00:03;98453.00;;;19.00
20289;BMP180;10303;51.960;8.372;2024-03-29T14:02:31;98477.00;;;19.10
20289;BMP180;10303;51.960;8.372;2024-03-29T14:04:57;98480.00;;;19.10
20289;BMP180;10303;51.960;8.372;2024-03-29T14:07:24;98492.00;;;19.10
20289;BMP180;10303;51.960;8.372;2024-03-29T14:09:51;98488.00;;;19.10
20289;BMP180;10303;51.960;8.372;2024-03-29T14:12:17;98486.00;;;19.00